Terminal Aerodrome Forecast
Issued by NWS

Home | Current Version | Previous Version | Text Only | Print | Product List | Glossary On
Versions: 1 2 3 4 5 6 7 8 9 10 11 12 13 14 15 16 17 18 19 20 21 22 23 24 25
179
FTUS43 KLOT 090531
TAFDPA
TAF
KDPA 090531Z 0906/1006 31013KT 3SM -SHSN SCT015 OVC035
      TEMPO 0909/0912 2SM -SHSN BR BKN015
     FM091200 32015G22KT P6SM -SHSN BKN025 OVC040 PROB30 0918/0922
      2SM -SHSN=

USA.gov is the U.S. government's official web portal to all federal, state and local government web resources and services.